createdAt,value
2023-04-22T00:01:59.097Z,99840.78
2023-04-22T00:04:28.244Z,99829.94
2023-04-22T00:06:57.883Z,99830.38
2023-04-22T00:09:27.146Z,99830.81
2023-04-22T00:11:56.254Z,99804.00
2023-04-22T00:14:25.359Z,99815.81
2023-04-22T00:16:55.564Z,99823.06
2023-04-22T00:19:24.626Z,99823.22
2023-04-22T00:21:53.592Z,99828.09
2023-04-22T00:24:22.713Z,99817.97
2023-04-22T00:26:51.768Z,99829.69
2023-04-22T00:29:20.853Z,99837.66
2023-04-22T00:31:50.183Z,99842.25
2023-04-22T00:34:20.546Z,99837.88
2023-04-22T00:36:51.457Z,99844.66
2023-04-22T00:39:20.792Z,99844.53
2023-04-22T00:41:50.885Z,99825.97
2023-04-22T00:44:19.875Z,99848.47
2023-04-22T00:46:50.008Z,99848.63
2023-04-22T00:49:21.981Z,99830.63
2023-04-22T00:51:50.986Z,99849.25
2023-04-22T00:54:19.907Z,99843.94
2023-04-22T00:56:49.057Z,99838.50
2023-04-22T00:59:17.911Z,99836.91
2023-04-22T01:01:48.043Z,99837.28
2023-04-22T01:04:17.685Z,99844.91
2023-04-22T01:06:51.212Z,99832.91
2023-04-22T01:09:20.973Z,99834.75
2023-04-22T01:11:50.050Z,99850.94
2023-04-22T01:14:19.208Z,99852.44
2023-04-22T01:16:48.444Z,99855.19
2023-04-22T01:19:18.406Z,99852.31
2023-04-22T01:21:51.705Z,99848.44
2023-04-22T01:24:22.388Z,99849.13
2023-04-22T01:26:51.864Z,99856.34
2023-04-22T01:29:21.091Z,99846.13
2023-04-22T01:31:50.696Z,99851.88
2023-04-22T01:34:19.873Z,99857.06
2023-04-22T01:36:52.410Z,99853.56
2023-04-22T01:39:22.878Z,99852.53
2023-04-22T01:41:52.604Z,99853.34
2023-04-22T01:44:21.676Z,99847.28
2023-04-22T01:46:51.824Z,99854.31
2023-04-22T01:49:21.092Z,99863.53
2023-04-22T01:51:50.650Z,99859.38
2023-04-22T01:54:19.716Z,99856.69
2023-04-22T01:56:54.613Z,99862.00
2023-04-22T01:59:23.601Z,99854.75
2023-04-22T02:01:52.929Z,99864.13
2023-04-22T02:04:22.549Z,99869.63
2023-04-22T02:06:52.347Z,99795.91
2023-04-22T02:09:21.560Z,99800.63
2023-04-22T02:11:53.488Z,99866.63
2023-04-22T02:14:23.821Z,99861.03
2023-04-22T02:16:53.009Z,99867.88
2023-04-22T02:19:22.036Z,99863.69
2023-04-22T02:21:50.935Z,99874.84
2023-04-22T02:24:19.800Z,99874.97
2023-04-22T02:26:49.242Z,99867.47
2023-04-22T02:29:20.318Z,99873.91
2023-04-22T02:31:49.555Z,99865.31
2023-04-22T02:34:19.036Z,99853.91
2023-04-22T02:36:48.887Z,99863.50
2023-04-22T02:39:18.105Z,99866.63
2023-04-22T02:41:47.244Z,99869.38
2023-04-22T02:44:16.841Z,99841.53
2023-04-22T02:46:47.115Z,99868.75
2023-04-22T02:49:16.152Z,99870.97
2023-04-22T02:51:46.035Z,99849.66
2023-04-22T02:54:15.591Z,99867.53
2023-04-22T02:56:44.832Z,99873.41
2023-04-22T02:59:13.766Z,99869.06
2023-04-22T03:01:42.921Z,99875.84
2023-04-22T03:04:22.035Z,99877.31
2023-04-22T03:06:51.128Z,99863.63
2023-04-22T03:09:20.296Z,99857.97
2023-04-22T03:11:49.267Z,99876.16
2023-04-22T03:14:18.269Z,99888.19
2023-04-22T03:16:47.981Z,99897.31
2023-04-22T03:19:31.124Z,99900.47
2023-04-22T03:22:01.661Z,99882.63
2023-04-22T03:24:30.635Z,99894.38
2023-04-22T03:27:04.865Z,99905.75
2023-04-22T03:29:33.979Z,99896.56
2023-04-22T03:32:03.498Z,99883.03
2023-04-22T03:34:33.333Z,99901.63
2023-04-22T03:37:04.714Z,99912.00
2023-04-22T03:39:33.805Z,99904.53
2023-04-22T03:42:02.846Z,99900.16
2023-04-22T03:44:32.392Z,99896.84
2023-04-22T03:47:01.947Z,99907.22
2023-04-22T03:49:40.813Z,99908.19
2023-04-22T03:52:12.144Z,99908.22
2023-04-22T03:54:47.062Z,99897.34
2023-04-22T03:57:16.389Z,99912.09
2023-04-22T03:59:45.502Z,99924.59
2023-04-22T04:02:15.736Z,99907.97
2023-04-22T04:04:44.939Z,99927.34
2023-04-22T04:07:15.576Z,99927.56
2023-04-22T04:09:44.477Z,99933.75
2023-04-22T04:12:13.984Z,99935.78
2023-04-22T04:14:46.450Z,99942.84
2023-04-22T04:17:19.578Z,99946.84
2023-04-22T04:19:49.218Z,99938.97
2023-04-22T04:22:19.675Z,99950.34
2023-04-22T04:24:56.093Z,99945.25
2023-04-22T04:27:29.659Z,99901.72
2023-04-22T04:29:58.876Z,99945.97
2023-04-22T04:32:46.151Z,99954.94
2023-04-22T04:35:18.810Z,99950.13
2023-04-22T04:37:54.020Z,99964.63
2023-04-22T04:40:23.300Z,99960.63
2023-04-22T04:43:08.571Z,99970.69
2023-04-22T04:45:49.720Z,99970.44
2023-04-22T04:48:25.182Z,99968.25
2023-04-22T04:50:59.028Z,99975.28
2023-04-22T04:53:32.525Z,99971.16
2023-04-22T04:56:01.489Z,99966.06
2023-04-22T04:58:31.805Z,99969.69
2023-04-22T05:01:18.473Z,99964.88
2023-04-22T05:03:49.366Z,99968.22
2023-04-22T05:06:20.446Z,99977.50
2023-04-22T05:08:55.668Z,99935.72
2023-04-22T05:11:25.589Z,99978.41
2023-04-22T05:13:55.938Z,99974.38
2023-04-22T05:16:31.933Z,99977.00
2023-04-22T05:19:01.558Z,99978.44
2023-04-22T05:21:31.540Z,99978.19
2023-04-22T05:24:02.388Z,99988.94
2023-04-22T05:26:32.094Z,99976.81
2023-04-22T05:29:02.435Z,99986.47
2023-04-22T05:31:34.865Z,99985.22
2023-04-22T05:34:03.997Z,99974.13
2023-04-22T05:36:34.258Z,99990.50
2023-04-22T05:39:04.951Z,99981.44
2023-04-22T05:41:35.254Z,99979.75
2023-04-22T05:44:07.926Z,99990.53
2023-04-22T05:46:37.137Z,99965.63
2023-04-22T05:49:07.627Z,99991.44
2023-04-22T05:51:55.619Z,99983.00
2023-04-22T05:54:31.106Z,99996.53
2023-04-22T05:57:00.574Z,99997.81
2023-04-22T05:59:29.657Z,99996.09
2023-04-22T06:02:00.467Z,99978.34
2023-04-22T06:04:35.339Z,99955.56
2023-04-22T06:07:07.147Z,100008.19
2023-04-22T06:09:37.891Z,99994.44
2023-04-22T06:12:07.920Z,100007.34
2023-04-22T06:14:38.337Z,100006.97
2023-04-22T06:17:08.607Z,100004.00
2023-04-22T06:19:38.495Z,99998.78
2023-04-22T06:22:07.817Z,99994.72
2023-04-22T06:24:38.262Z,100001.72
2023-04-22T06:27:09.460Z,99981.06
2023-04-22T06:29:41.549Z,100009.38
2023-04-22T06:32:11.016Z,99985.44
2023-04-22T06:34:39.971Z,100016.34
2023-04-22T06:37:09.242Z,100015.47
2023-04-22T06:39:40.137Z,100001.56
2023-04-22T06:42:32.437Z,99996.72
2023-04-22T06:45:19.622Z,99997.44
2023-04-22T06:48:19.272Z,100008.38
2023-04-22T06:51:08.739Z,100000.69
2023-04-22T06:53:37.715Z,100008.81
2023-04-22T06:56:08.505Z,100025.53
2023-04-22T06:58:37.396Z,100028.00
2023-04-22T07:01:06.869Z,100009.66
2023-04-22T07:03:36.463Z,100006.22
2023-04-22T07:06:18.285Z,100032.03
2023-04-22T07:08:47.310Z,100023.78
2023-04-22T07:11:19.573Z,100035.66
2023-04-22T07:13:58.728Z,100029.00
2023-04-22T07:16:29.755Z,100007.53
2023-04-22T07:18:59.308Z,100038.13
2023-04-22T07:21:28.540Z,100035.19
2023-04-22T07:23:57.781Z,100030.88
2023-04-22T07:26:36.949Z,100026.44
2023-04-22T07:29:09.565Z,99953.94
2023-04-22T07:31:39.760Z,100021.34
2023-04-22T07:34:12.914Z,100032.97
2023-04-22T07:36:42.767Z,100045.34
2023-04-22T07:39:12.045Z,100043.09
2023-04-22T07:41:42.460Z,100043.13
2023-04-22T07:44:18.320Z,100061.06
2023-04-22T07:46:47.406Z,100045.19
2023-04-22T07:49:17.264Z,100051.50
2023-04-22T07:51:46.824Z,100031.22
2023-04-22T07:54:20.546Z,100031.91
2023-04-22T07:56:51.339Z,100053.84
2023-04-22T07:59:20.654Z,100041.25
2023-04-22T08:01:49.968Z,100040.09
2023-04-22T08:04:19.159Z,100052.69
2023-04-22T08:06:48.302Z,100063.59
2023-04-22T08:09:17.435Z,100043.81
2023-04-22T08:11:46.508Z,100065.66
2023-04-22T08:14:16.865Z,100020.22
2023-04-22T08:16:46.349Z,100006.25
2023-04-22T08:19:15.985Z,100062.50
2023-04-22T08:21:45.089Z,100052.22
2023-04-22T08:24:14.234Z,100060.13
2023-04-22T08:26:43.596Z,100064.00
2023-04-22T08:29:13.098Z,100067.19
2023-04-22T08:31:47.000Z,100060.94
2023-04-22T08:34:17.630Z,100068.38
2023-04-22T08:36:47.333Z,100068.69
2023-04-22T08:39:17.826Z,100066.00
2023-04-22T08:41:47.761Z,100057.94
2023-04-22T08:44:17.835Z,100074.78
2023-04-22T08:46:49.218Z,100063.00
2023-04-22T08:49:18.503Z,100079.69
2023-04-22T08:51:47.715Z,100076.13
2023-04-22T08:54:16.741Z,100075.09
2023-04-22T08:56:46.427Z,100079.84
2023-04-22T08:59:17.029Z,100070.38
2023-04-22T09:01:53.266Z,100072.00
2023-04-22T09:04:22.627Z,100074.13
2023-04-22T09:06:51.906Z,100069.75
2023-04-22T09:09:21.166Z,100049.16
2023-04-22T09:11:50.783Z,100079.16
2023-04-22T09:14:20.781Z,100084.91
2023-04-22T09:16:51.397Z,100078.31
2023-04-22T09:19:26.414Z,100086.22
2023-04-22T09:21:58.793Z,100081.16
2023-04-22T09:24:28.595Z,100083.47
2023-04-22T09:26:57.763Z,100079.06
2023-04-22T09:29:33.816Z,100065.75
2023-04-22T09:32:11.053Z,100067.47
2023-04-22T09:34:51.947Z,100059.78
2023-04-22T09:37:25.069Z,100075.06
2023-04-22T09:39:56.514Z,100070.38
2023-04-22T09:42:25.759Z,100055.91
2023-04-22T09:44:54.850Z,100064.31
2023-04-22T09:47:25.511Z,100067.34
2023-04-22T09:49:54.579Z,100076.16
2023-04-22T09:52:28.685Z,100072.06
2023-04-22T09:54:57.674Z,100071.78
2023-04-22T09:57:27.885Z,100083.16
2023-04-22T10:00:00.362Z,100069.59
2023-04-22T10:02:31.900Z,100020.75
2023-04-22T10:05:01.631Z,100073.72
2023-04-22T10:07:32.335Z,100067.53
2023-04-22T10:10:01.613Z,100020.72
2023-04-22T10:12:35.470Z,100050.69
2023-04-22T10:15:06.458Z,100048.81
2023-04-22T10:17:39.557Z,100044.84
2023-04-22T10:20:14.438Z,100061.53
2023-04-22T10:22:44.413Z,100052.63
2023-04-22T10:25:15.568Z,100040.50
2023-04-22T10:27:54.917Z,100061.19
2023-04-22T10:30:30.964Z,100056.94
2023-04-22T10:33:34.915Z,100053.97
2023-04-22T10:36:17.247Z,100038.28
2023-04-22T10:39:17.788Z,100056.59
2023-04-22T10:41:53.200Z,100063.28
2023-04-22T10:44:22.857Z,100042.00
2023-04-22T10:47:02.096Z,100051.06
2023-04-22T10:49:32.805Z,100032.78
2023-04-22T10:52:05.134Z,100044.44
2023-04-22T10:55:02.686Z,100060.59
2023-04-22T10:57:45.356Z,100041.34
2023-04-22T11:00:23.521Z,100053.25
2023-04-22T11:02:55.791Z,100031.84
2023-04-22T11:05:27.275Z,100067.00
2023-04-22T11:08:04.232Z,100064.91
2023-04-22T11:10:43.055Z,100061.22
2023-04-22T11:13:15.526Z,100068.22
2023-04-22T11:15:46.398Z,100075.56
2023-04-22T11:18:19.917Z,100074.59
2023-04-22T11:20:50.718Z,100065.44
2023-04-22T11:23:24.937Z,100076.16
2023-04-22T11:25:58.441Z,100064.25
2023-04-22T11:28:28.356Z,100080.44
2023-04-22T11:31:07.782Z,100076.72
2023-04-22T11:33:38.599Z,100073.69
2023-04-22T11:36:11.808Z,100059.72
2023-04-22T11:38:42.330Z,100075.13
2023-04-22T11:41:11.331Z,100055.53
2023-04-22T11:43:50.486Z,100076.34
2023-04-22T11:46:30.146Z,100061.19
2023-04-22T11:49:13.946Z,100070.19
2023-04-22T11:51:56.771Z,100078.47
2023-04-22T11:54:34.069Z,100077.59
2023-04-22T11:57:08.259Z,100066.75
2023-04-22T11:59:37.193Z,100085.09
2023-04-22T12:02:07.936Z,100079.63
2023-04-22T12:04:38.898Z,100078.03
2023-04-22T12:07:09.217Z,100071.44
2023-04-22T12:09:41.591Z,100063.50
2023-04-22T12:12:10.435Z,100079.34
2023-04-22T12:14:39.330Z,100060.97
2023-04-22T12:17:12.196Z,100076.00
2023-04-22T12:19:41.815Z,100075.75
2023-04-22T12:22:33.584Z,100073.16
2023-04-22T12:25:08.507Z,100074.34
2023-04-22T12:27:39.977Z,100068.59
2023-04-22T12:30:10.256Z,100058.94
2023-04-22T12:32:39.372Z,100073.25
2023-04-22T12:35:09.608Z,100053.31
2023-04-22T12:37:50.712Z,100070.38
2023-04-22T12:40:22.762Z,100069.41
2023-04-22T12:42:53.448Z,100046.75
2023-04-22T12:45:25.005Z,100061.84
2023-04-22T12:47:55.593Z,100045.81
2023-04-22T12:50:24.646Z,100065.53
2023-04-22T12:52:53.807Z,100065.94
2023-04-22T12:55:24.939Z,100042.06
2023-04-22T12:57:54.589Z,100065.16
2023-04-22T13:00:27.112Z,100070.41
2023-04-22T13:02:56.195Z,100054.97
2023-04-22T13:05:26.969Z,100064.09
2023-04-22T13:08:06.449Z,100072.69
2023-04-22T13:10:38.499Z,100052.69
2023-04-22T13:15:40.656Z,100066.31
2023-04-22T13:18:09.789Z,100061.00
2023-04-22T13:20:40.040Z,100063.31
2023-04-22T13:23:09.818Z,100074.38
2023-04-22T13:25:40.072Z,100068.97
2023-04-22T13:28:10.500Z,100074.56
2023-04-22T13:30:40.422Z,100065.44
2023-04-22T13:33:09.596Z,100082.66
2023-04-22T13:35:38.775Z,100075.50
2023-04-22T13:38:08.090Z,100076.22
2023-04-22T13:40:37.469Z,100053.31
2023-04-22T13:43:09.844Z,100067.44
2023-04-22T13:45:46.053Z,100064.38
2023-04-22T13:48:15.216Z,100060.00
2023-04-22T13:50:50.575Z,100077.38
2023-04-22T13:53:25.164Z,100079.06
2023-04-22T13:55:54.639Z,100064.69
2023-04-22T13:58:26.704Z,100071.91
2023-04-22T14:00:55.666Z,100076.84
2023-04-22T14:03:26.406Z,100074.63
2023-04-22T14:05:58.495Z,100072.41
2023-04-22T14:08:27.683Z,100035.25
2023-04-22T14:10:57.356Z,100079.53
2023-04-22T14:13:30.122Z,100060.00
2023-04-22T14:16:00.661Z,100075.50
2023-04-22T14:18:31.483Z,100077.44
2023-04-22T14:21:01.120Z,100074.34
2023-04-22T14:23:30.145Z,100075.81
2023-04-22T14:25:59.748Z,100083.91
2023-04-22T14:28:30.362Z,100070.22
2023-04-22T14:30:59.521Z,100060.09
2023-04-22T14:33:29.073Z,100072.72
2023-04-22T14:35:58.132Z,100079.63
2023-04-22T14:38:27.366Z,100065.53
2023-04-22T14:40:56.547Z,100073.72
2023-04-22T14:43:25.931Z,100070.50
2023-04-22T14:45:56.354Z,100065.03
2023-04-22T14:48:30.126Z,100077.94
2023-04-22T14:51:00.555Z,100073.47
2023-04-22T14:53:29.883Z,100081.44
2023-04-22T14:55:59.622Z,100084.31
2023-04-22T14:58:31.598Z,100061.94
2023-04-22T15:03:36.007Z,100084.47
2023-04-22T15:06:05.520Z,100049.28
2023-04-22T15:08:35.621Z,100081.06
2023-04-22T15:11:04.886Z,100082.56
2023-04-22T15:13:37.594Z,100084.81
2023-04-22T15:16:08.807Z,100084.56
2023-04-22T15:18:38.071Z,100081.22
2023-04-22T15:21:10.241Z,100086.97
2023-04-22T15:23:42.557Z,100080.72
2023-04-22T15:26:11.828Z,100089.59
2023-04-22T15:28:41.236Z,100086.44
2023-04-22T15:31:14.912Z,100097.31
2023-04-22T15:33:44.782Z,100069.19
2023-04-22T15:36:17.277Z,100096.41
2023-04-22T15:38:47.206Z,100104.09
2023-04-22T15:41:16.941Z,100105.38
2023-04-22T15:43:46.521Z,100101.16
2023-04-22T15:46:16.855Z,100093.19
2023-04-22T15:48:47.510Z,100107.97
2023-04-22T15:51:17.053Z,100103.28
2023-04-22T15:53:46.837Z,100060.44
2023-04-22T15:56:16.382Z,100098.72
2023-04-22T15:58:45.750Z,100103.59
2023-04-22T16:01:19.463Z,100101.47
2023-04-22T16:03:50.405Z,100109.06
2023-04-22T16:06:20.528Z,100098.16
2023-04-22T16:08:50.307Z,100107.47
2023-04-22T16:11:23.010Z,100113.63
2023-04-22T16:13:52.047Z,100107.38
2023-04-22T16:16:23.217Z,100109.47
2023-04-22T16:18:52.655Z,100116.19
2023-04-22T16:21:21.823Z,100120.66
2023-04-22T16:23:51.433Z,100124.16
2023-04-22T16:26:20.653Z,100105.97
2023-04-22T16:28:50.771Z,100107.94
2023-04-22T16:31:23.089Z,100128.22
2023-04-22T16:33:53.722Z,100121.44
2023-04-22T16:36:24.603Z,100125.63
2023-04-22T16:38:53.651Z,100139.13
2023-04-22T16:41:25.270Z,100104.56
2023-04-22T16:43:54.777Z,100135.75
2023-04-22T16:46:24.190Z,100148.38
2023-04-22T16:48:54.993Z,100146.19
2023-04-22T16:51:23.967Z,100105.91
2023-04-22T16:53:52.982Z,100136.00
2023-04-22T16:56:24.079Z,100148.00
2023-04-22T16:58:53.261Z,100138.72
2023-04-22T17:01:23.842Z,100159.63
2023-04-22T17:03:54.612Z,100148.09
2023-04-22T17:06:24.440Z,100155.19
2023-04-22T17:08:56.730Z,100145.38
2023-04-22T17:11:25.886Z,100147.56
2023-04-22T17:13:55.188Z,100155.13
2023-04-22T17:16:24.502Z,100159.81
2023-04-22T17:18:55.048Z,100083.50
2023-04-22T17:21:24.450Z,100171.09
2023-04-22T17:23:55.456Z,100147.50
2023-04-22T17:26:24.539Z,100169.00
2023-04-22T17:28:53.732Z,100150.22
2023-04-22T17:31:23.854Z,100177.56
2023-04-22T17:33:57.255Z,100178.72
2023-04-22T17:36:27.841Z,100161.63
2023-04-22T17:38:56.874Z,100187.25
2023-04-22T17:41:26.378Z,100187.25
2023-04-22T17:43:57.331Z,100183.56
2023-04-22T17:46:29.005Z,100193.31
2023-04-22T17:49:06.587Z,100198.34
2023-04-22T17:51:35.964Z,100201.34
2023-04-22T17:54:10.614Z,100204.13
2023-04-22T17:56:41.134Z,100186.50
2023-04-22T17:59:13.392Z,100189.63
2023-04-22T18:01:49.055Z,100210.97
2023-04-22T18:04:23.831Z,100200.19
2023-04-22T18:06:53.407Z,100213.53
2023-04-22T18:09:22.773Z,100218.53
2023-04-22T18:11:51.986Z,100197.19
2023-04-22T18:14:21.714Z,100210.69
2023-04-22T18:16:50.799Z,100229.88
2023-04-22T18:19:20.167Z,100227.59
2023-04-22T18:21:59.653Z,100234.84
2023-04-22T18:24:29.715Z,100213.53
2023-04-22T18:26:59.011Z,100228.59
2023-04-22T18:29:28.040Z,100233.75
2023-04-22T18:31:58.416Z,100239.78
2023-04-22T18:34:29.062Z,100221.88
2023-04-22T18:37:03.274Z,100238.41
2023-04-22T18:39:33.530Z,100231.56
2023-04-22T18:42:02.755Z,100230.06
2023-04-22T18:44:37.130Z,100234.38
2023-04-22T18:47:09.008Z,100202.59
2023-04-22T18:49:38.171Z,100239.28
2023-04-22T18:52:09.150Z,100236.00
2023-04-22T18:54:38.503Z,100207.50
2023-04-22T18:57:08.143Z,100241.75
2023-04-22T18:59:37.296Z,100228.19
2023-04-22T19:02:07.064Z,100247.81
2023-04-22T19:04:36.348Z,100251.50
2023-04-22T19:07:05.892Z,100230.19
2023-04-22T19:09:36.688Z,100254.50
2023-04-22T19:12:06.511Z,100262.22
2023-04-22T19:14:35.778Z,100226.38
2023-04-22T19:17:04.801Z,100259.28
2023-04-22T19:19:34.092Z,100256.34
2023-04-22T19:22:03.694Z,100221.09
2023-04-22T19:24:33.978Z,100227.00
2023-04-22T19:27:07.097Z,100224.78
2023-04-22T19:29:36.527Z,100270.78
2023-04-22T19:32:06.859Z,100270.50
2023-04-22T19:34:36.361Z,100266.94
2023-04-22T19:37:06.154Z,100270.78
2023-04-22T19:39:35.422Z,100266.66
2023-04-22T19:42:06.364Z,100266.50
2023-04-22T19:44:36.415Z,100266.44
2023-04-22T19:47:05.649Z,100266.75
2023-04-22T19:49:35.261Z,100276.41
2023-04-22T19:52:04.816Z,100286.72
2023-04-22T19:54:34.270Z,100275.72
2023-04-22T19:57:06.622Z,100262.38
2023-04-22T19:59:37.277Z,100247.00
2023-04-22T20:02:07.580Z,100283.41
2023-04-22T20:04:37.984Z,100273.59
2023-04-22T20:07:08.040Z,100278.88
2023-04-22T20:09:37.672Z,100278.88
2023-04-22T20:12:07.597Z,100274.66
2023-04-22T20:14:42.521Z,100241.16
2023-04-22T20:17:12.161Z,100282.03
2023-04-22T20:19:41.664Z,100275.34
2023-04-22T20:22:13.056Z,100287.31
2023-04-22T20:24:48.565Z,100269.25
2023-04-22T20:27:25.668Z,100286.31
2023-04-22T20:29:57.570Z,100281.56
2023-04-22T20:32:27.486Z,100284.47
2023-04-22T20:34:57.707Z,100273.41
2023-04-22T20:37:31.788Z,100274.81
2023-04-22T20:40:04.538Z,100271.19
2023-04-22T20:42:33.969Z,100258.97
2023-04-22T20:45:05.336Z,100288.66
2023-04-22T20:47:35.992Z,100285.56
2023-04-22T20:50:05.498Z,100281.34
2023-04-22T20:52:35.674Z,100279.41
2023-04-22T20:55:06.669Z,100266.22
2023-04-22T20:57:35.815Z,100286.78
2023-04-22T21:00:08.327Z,100281.19
2023-04-22T21:02:39.006Z,100284.34
2023-04-22T21:05:11.303Z,100287.69
2023-04-22T21:07:41.990Z,100266.53
2023-04-22T21:10:12.033Z,100289.97
2023-04-22T21:12:41.846Z,100288.56
2023-04-22T21:15:13.488Z,100226.66
2023-04-22T21:17:51.785Z,100289.09
2023-04-22T21:20:23.528Z,100265.50
2023-04-22T21:22:54.958Z,100292.88
2023-04-22T21:25:24.814Z,100299.81
2023-04-22T21:27:57.295Z,100275.53
2023-04-22T21:30:28.452Z,100299.81
2023-04-22T21:32:57.601Z,100301.09
2023-04-22T21:35:26.758Z,100302.19
2023-04-22T21:37:55.807Z,100259.88
2023-04-22T21:40:24.925Z,100285.09
2023-04-22T21:42:53.868Z,100285.00
2023-04-22T21:45:22.883Z,100299.84
2023-04-22T21:47:53.956Z,100298.44
2023-04-22T21:50:24.386Z,100297.31
2023-04-22T21:52:53.706Z,100289.84
2023-04-22T21:55:22.946Z,100312.00
2023-04-22T21:57:52.152Z,100306.03
2023-04-22T22:00:21.194Z,100303.00
2023-04-22T22:02:50.501Z,100279.06
2023-04-22T22:05:21.144Z,100296.19
2023-04-22T22:07:50.430Z,100305.38
2023-04-22T22:10:22.461Z,100293.69
2023-04-22T22:12:52.974Z,100297.38
2023-04-22T22:15:22.155Z,100320.56
2023-04-22T22:17:52.110Z,100297.66
2023-04-22T22:20:23.988Z,100300.25
2023-04-22T22:22:55.204Z,100313.50
2023-04-22T22:25:27.387Z,100311.53
2023-04-22T22:27:56.582Z,100303.91
2023-04-22T22:30:26.201Z,100312.13
2023-04-22T22:32:58.639Z,100300.94
2023-04-22T22:35:30.763Z,100291.53
2023-04-22T22:38:00.151Z,100291.50
2023-04-22T22:40:29.157Z,100254.53
2023-04-22T22:43:01.650Z,100283.31
2023-04-22T22:45:30.795Z,100306.75
2023-04-22T22:48:00.011Z,100302.91
2023-04-22T22:50:31.045Z,100309.97
2023-04-22T22:53:02.223Z,100312.66
2023-04-22T22:55:31.436Z,100315.06
2023-04-22T22:58:00.918Z,100316.47
2023-04-22T23:00:30.176Z,100314.06
2023-04-22T23:02:59.484Z,100319.03
2023-04-22T23:05:30.534Z,100314.66
2023-04-22T23:07:59.484Z,100296.59
2023-04-22T23:10:28.740Z,100307.03
2023-04-22T23:12:57.637Z,100303.09
2023-04-22T23:15:26.583Z,100313.50
2023-04-22T23:17:55.635Z,100311.00
2023-04-22T23:20:25.790Z,100314.94
2023-04-22T23:22:57.142Z,100305.06
2023-04-22T23:25:27.041Z,100317.91
2023-04-22T23:27:56.600Z,100295.75
2023-04-22T23:30:26.338Z,100319.16
2023-04-22T23:32:58.578Z,100316.63
2023-04-22T23:35:28.442Z,100320.88
2023-04-22T23:38:00.396Z,100317.59
2023-04-22T23:40:29.569Z,100310.13
2023-04-22T23:43:03.565Z,100321.94
2023-04-22T23:45:32.753Z,100306.13
2023-04-22T23:48:02.175Z,100315.03
2023-04-22T23:50:31.514Z,100323.06
2023-04-22T23:53:02.370Z,100299.38
2023-04-22T23:55:32.116Z,100310.09
2023-04-22T23:58:04.542Z,100315.91
